createdAt,value
2016-08-26T00:00:28.411Z,0
2016-08-26T00:01:27.000Z,0
2016-08-26T00:02:27.848Z,0
2016-08-26T00:03:28.410Z,0
2016-08-26T00:04:27.661Z,0
2016-08-26T00:05:28.423Z,0
2016-08-26T00:06:28.380Z,0
2016-08-26T00:07:27.652Z,0
2016-08-26T00:08:27.010Z,0
2016-08-26T00:09:27.650Z,0
2016-08-26T00:10:28.339Z,0
2016-08-26T00:11:27.630Z,0
2016-08-26T00:12:28.327Z,0
2016-08-26T00:13:28.343Z,0
2016-08-26T00:14:28.301Z,0
2016-08-26T00:15:28.315Z,0
2016-08-26T00:16:28.287Z,0
2016-08-26T00:17:28.281Z,0
2016-08-26T00:18:28.332Z,0
2016-08-26T00:19:28.269Z,0
2016-08-26T00:20:27.550Z,0
2016-08-26T00:21:28.278Z,0
2016-08-26T00:22:27.582Z,0
2016-08-26T00:23:28.217Z,0
2016-08-26T00:24:28.237Z,0
2016-08-26T00:25:28.197Z,0
2016-08-26T00:26:27.546Z,0
2016-08-26T00:27:28.210Z,0
2016-08-26T00:28:27.530Z,0
2016-08-26T00:29:26.739Z,0
2016-08-26T00:30:27.467Z,0
2016-08-26T00:31:26.819Z,0
2016-08-26T00:32:28.140Z,0
2016-08-26T00:33:27.430Z,0
2016-08-26T00:34:28.170Z,0
2016-08-26T00:35:28.108Z,0
2016-08-26T00:36:27.387Z,0
2016-08-26T00:37:28.120Z,0
2016-08-26T00:38:26.651Z,0
2016-08-26T00:39:27.438Z,0
2016-08-26T00:40:27.346Z,0
2016-08-26T00:41:27.343Z,0
2016-08-26T00:42:28.121Z,0
2016-08-26T00:43:27.336Z,0
2016-08-26T00:44:27.328Z,0
2016-08-26T00:45:26.589Z,0
2016-08-26T00:46:27.290Z,0
2016-08-26T00:47:27.294Z,0
2016-08-26T00:48:26.557Z,0
2016-08-26T00:49:27.985Z,0
2016-08-26T00:50:28.027Z,0
2016-08-26T00:51:27.249Z,0
2016-08-26T00:52:27.955Z,0
2016-08-26T00:53:26.519Z,0
2016-08-26T00:54:27.923Z,0
2016-08-26T00:55:27.921Z,0
2016-08-26T00:56:27.917Z,0
2016-08-26T00:57:27.917Z,0
2016-08-26T00:58:27.188Z,0
2016-08-26T00:59:27.889Z,0
2016-08-26T01:00:27.885Z,0
2016-08-26T01:01:26.460Z,0
2016-08-26T01:02:27.861Z,0
2016-08-26T01:03:27.140Z,0
2016-08-26T01:04:27.846Z,0
2016-08-26T01:05:27.846Z,0
2016-08-26T01:06:27.831Z,0
2016-08-26T01:07:27.814Z,0
2016-08-26T01:08:27.813Z,0
2016-08-26T01:09:27.800Z,0
2016-08-26T01:10:26.375Z,0
2016-08-26T01:11:27.793Z,0
2016-08-26T01:12:27.056Z,0
2016-08-26T01:13:27.800Z,0
2016-08-26T01:14:27.747Z,0
2016-08-26T01:15:27.770Z,0
2016-08-26T01:16:27.777Z,0
2016-08-26T01:17:27.731Z,0
2016-08-26T01:18:27.706Z,0
2016-08-26T01:19:26.275Z,0
2016-08-26T01:20:27.696Z,0
2016-08-26T01:21:26.991Z,0
2016-08-26T01:22:26.972Z,0
2016-08-26T01:23:26.249Z,0
2016-08-26T01:24:27.681Z,0
2016-08-26T01:25:26.929Z,0
2016-08-26T01:26:27.637Z,0
2016-08-26T01:27:27.686Z,0
2016-08-26T01:28:26.193Z,0
2016-08-26T01:29:26.180Z,0
2016-08-26T01:30:27.621Z,0
2016-08-26T01:31:27.580Z,0
2016-08-26T01:32:27.581Z,0
2016-08-26T01:33:27.562Z,0
2016-08-26T01:34:26.860Z,0
2016-08-26T01:35:26.127Z,0
2016-08-26T01:36:27.560Z,0
2016-08-26T01:37:27.071Z,0
2016-08-26T01:38:27.536Z,0
2016-08-26T01:39:27.537Z,0
2016-08-26T01:40:26.800Z,0
2016-08-26T01:41:27.489Z,0
2016-08-26T01:42:27.489Z,0
2016-08-26T01:43:27.477Z,0
2016-08-26T01:44:27.456Z,0
2016-08-26T01:45:27.458Z,0
2016-08-26T01:46:26.020Z,0
2016-08-26T01:47:27.465Z,0
2016-08-26T01:48:26.726Z,0
2016-08-26T01:49:25.262Z,0
2016-08-26T01:50:26.696Z,0
2016-08-26T01:51:27.410Z,0
2016-08-26T01:52:27.397Z,0
2016-08-26T01:53:26.661Z,0
2016-08-26T01:54:25.956Z,0
2016-08-26T01:55:27.348Z,0
2016-08-26T01:56:27.336Z,0
2016-08-26T01:57:26.640Z,0
2016-08-26T01:58:26.019Z,0
2016-08-26T01:59:25.897Z,0
2016-08-26T02:00:25.877Z,0
2016-08-26T02:01:26.590Z,0
2016-08-26T02:02:26.567Z,0
2016-08-26T02:03:26.566Z,0
2016-08-26T02:04:27.269Z,0
2016-08-26T02:05:27.288Z,0
2016-08-26T02:06:26.540Z,0
2016-08-26T02:07:27.250Z,0
2016-08-26T02:08:27.442Z,0
2016-08-26T02:09:27.220Z,0
2016-08-26T02:10:27.228Z,0
2016-08-26T02:11:27.193Z,0
2016-08-26T02:12:27.275Z,0
2016-08-26T02:13:27.177Z,0
2016-08-26T02:14:26.457Z,0
2016-08-26T02:15:25.740Z,0
2016-08-26T02:16:26.425Z,0
2016-08-26T02:17:26.509Z,0
2016-08-26T02:18:27.145Z,0
2016-08-26T02:19:27.129Z,0
2016-08-26T02:20:27.130Z,0
2016-08-26T02:21:27.119Z,0
2016-08-26T02:22:27.091Z,0
2016-08-26T02:23:27.089Z,0
2016-08-26T02:24:26.367Z,0
2016-08-26T02:25:26.430Z,0
2016-08-26T02:26:27.098Z,0
2016-08-26T02:27:26.318Z,0
2016-08-26T02:28:27.840Z,0
2016-08-26T02:29:25.597Z,0
2016-08-26T02:30:26.290Z,0
2016-08-26T02:31:26.289Z,0
2016-08-26T02:32:27.000Z,0
2016-08-26T02:33:26.987Z,0
2016-08-26T02:34:27.061Z,0
2016-08-26T02:35:26.969Z,0
2016-08-26T02:36:26.250Z,0
2016-08-26T02:37:26.250Z,0
2016-08-26T02:38:26.976Z,0
2016-08-26T02:39:26.208Z,0
2016-08-26T02:40:26.229Z,0
2016-08-26T02:41:26.900Z,0
2016-08-26T02:42:26.178Z,0
2016-08-26T02:43:26.168Z,0
2016-08-26T02:44:26.161Z,0
2016-08-26T02:45:26.871Z,0
2016-08-26T02:46:26.850Z,0
2016-08-26T02:47:26.852Z,0
2016-08-26T02:48:26.116Z,0
2016-08-26T02:49:26.107Z,0
2016-08-26T02:50:26.810Z,0
2016-08-26T02:51:26.791Z,0
2016-08-26T02:52:26.790Z,0
2016-08-26T02:53:26.053Z,0
2016-08-26T02:54:26.769Z,0
2016-08-26T02:55:26.120Z,0
2016-08-26T02:56:26.758Z,0
2016-08-26T02:57:26.078Z,0
2016-08-26T02:58:26.729Z,0
2016-08-26T02:59:26.022Z,0
2016-08-26T03:00:25.292Z,0
2016-08-26T03:01:25.271Z,0
2016-08-26T03:02:26.691Z,0
2016-08-26T03:03:26.717Z,0
2016-08-26T03:04:25.939Z,0
2016-08-26T03:05:25.990Z,0
2016-08-26T03:06:26.637Z,0
2016-08-26T03:07:26.688Z,0
2016-08-26T03:08:25.922Z,0
2016-08-26T03:09:25.242Z,0
2016-08-26T03:10:25.901Z,0
2016-08-26T03:11:26.636Z,0
2016-08-26T03:12:26.589Z,0
2016-08-26T03:13:26.588Z,0
2016-08-26T03:14:25.138Z,0
2016-08-26T03:15:26.551Z,0
2016-08-26T03:16:26.531Z,0
2016-08-26T03:17:25.101Z,0
2016-08-26T03:18:26.518Z,0
2016-08-26T03:19:25.793Z,0
2016-08-26T03:20:26.526Z,0
2016-08-26T03:21:26.492Z,0
2016-08-26T03:22:25.841Z,0
2016-08-26T03:23:25.751Z,0
2016-08-26T03:24:26.461Z,0
2016-08-26T03:25:26.461Z,0
2016-08-26T03:26:26.439Z,0
2016-08-26T03:27:26.433Z,0
2016-08-26T03:28:26.438Z,0
2016-08-26T03:29:25.702Z,0
2016-08-26T03:30:26.398Z,0
2016-08-26T03:31:25.692Z,0
2016-08-26T03:32:25.745Z,0
2016-08-26T03:33:26.376Z,0
2016-08-26T03:34:23.508Z,0
2016-08-26T03:35:25.652Z,0
2016-08-26T03:36:25.690Z,0
2016-08-26T03:37:24.893Z,0
2016-08-26T03:38:26.322Z,0
2016-08-26T03:39:26.317Z,0
2016-08-26T03:40:24.918Z,0
2016-08-26T03:41:26.311Z,0
2016-08-26T03:42:26.265Z,0
2016-08-26T03:43:26.269Z,0
2016-08-26T03:44:26.282Z,0
2016-08-26T03:45:25.529Z,0
2016-08-26T03:46:26.230Z,0
2016-08-26T03:47:26.222Z,0
2016-08-26T03:48:26.218Z,0
2016-08-26T03:49:26.199Z,0
2016-08-26T03:50:26.214Z,0
2016-08-26T03:51:25.461Z,0
2016-08-26T03:52:25.450Z,0
2016-08-26T03:53:25.442Z,0
2016-08-26T03:54:26.152Z,0
2016-08-26T03:55:26.138Z,0
2016-08-26T03:56:26.181Z,0
2016-08-26T03:57:26.140Z,0
2016-08-26T03:58:25.392Z,0
2016-08-26T03:59:26.088Z,0
2016-08-26T04:00:26.104Z,0
2016-08-26T04:01:25.394Z,0
2016-08-26T04:02:26.103Z,0
2016-08-26T04:03:26.090Z,0
2016-08-26T04:04:26.063Z,0
2016-08-26T04:05:26.042Z,0
2016-08-26T04:06:26.027Z,0
2016-08-26T04:07:25.301Z,0
2016-08-26T04:08:25.341Z,0
2016-08-26T04:09:25.293Z,0
2016-08-26T04:10:25.344Z,0
2016-08-26T04:11:25.270Z,0
2016-08-26T04:12:25.981Z,0
2016-08-26T04:13:24.512Z,0
2016-08-26T04:14:25.971Z,0
2016-08-26T04:15:25.923Z,0
2016-08-26T04:16:25.179Z,0
2016-08-26T04:17:25.183Z,0
2016-08-26T04:18:25.962Z,0
2016-08-26T04:19:25.892Z,0
2016-08-26T04:20:24.459Z,0
2016-08-26T04:21:25.867Z,0
2016-08-26T04:22:25.843Z,0
2016-08-26T04:23:24.410Z,0
2016-08-26T04:24:25.111Z,0
2016-08-26T04:25:25.809Z,0
2016-08-26T04:26:25.793Z,0
2016-08-26T04:27:25.787Z,0
2016-08-26T04:28:25.783Z,0
2016-08-26T04:29:25.122Z,0
2016-08-26T04:30:25.040Z,0
2016-08-26T04:31:25.751Z,0
2016-08-26T04:32:25.751Z,0
2016-08-26T04:33:25.733Z,5
2016-08-26T04:34:24.998Z,5
2016-08-26T04:35:25.699Z,5
2016-08-26T04:36:24.984Z,5
2016-08-26T04:37:25.699Z,5
2016-08-26T04:38:24.944Z,5
2016-08-26T04:39:24.312Z,5
2016-08-26T04:40:24.931Z,5
2016-08-26T04:41:25.640Z,5
2016-08-26T04:42:25.662Z,5
2016-08-26T04:43:24.901Z,5
2016-08-26T04:44:25.619Z,10
2016-08-26T04:45:25.593Z,10
2016-08-26T04:46:24.891Z,10
2016-08-26T04:47:25.578Z,10
2016-08-26T04:48:24.842Z,10
2016-08-26T04:49:24.888Z,10
2016-08-26T04:50:25.532Z,10
2016-08-26T04:51:24.840Z,10
2016-08-26T04:52:24.807Z,15
2016-08-26T04:53:25.580Z,15
2016-08-26T04:54:24.780Z,15
2016-08-26T04:55:24.802Z,15
2016-08-26T04:56:25.482Z,15
2016-08-26T04:57:24.042Z,15
2016-08-26T04:58:24.743Z,15
2016-08-26T04:59:24.742Z,20
2016-08-26T05:00:25.452Z,20
2016-08-26T05:01:24.728Z,20
2016-08-26T05:02:24.700Z,20
2016-08-26T05:03:24.694Z,20
2016-08-26T05:04:24.701Z,20
2016-08-26T05:05:25.384Z,20
2016-08-26T05:06:23.991Z,25
2016-08-26T05:07:24.650Z,25
2016-08-26T05:08:23.918Z,25
2016-08-26T05:09:23.901Z,25
2016-08-26T05:10:24.603Z,25
2016-08-26T05:11:25.311Z,25
2016-08-26T05:12:25.294Z,25
2016-08-26T05:13:24.583Z,30
2016-08-26T05:14:25.293Z,30
2016-08-26T05:15:24.541Z,30
2016-08-26T05:16:25.254Z,30
2016-08-26T05:17:25.250Z,30
2016-08-26T05:18:25.242Z,30
2016-08-26T05:19:23.859Z,35
2016-08-26T05:20:23.772Z,35
2016-08-26T05:21:25.210Z,35
2016-08-26T05:22:24.479Z,35
2016-08-26T05:23:24.469Z,35
2016-08-26T05:24:24.491Z,35
2016-08-26T05:25:25.197Z,35
2016-08-26T05:26:23.723Z,40
2016-08-26T05:27:25.123Z,40
2016-08-26T05:28:25.127Z,40
2016-08-26T05:29:23.691Z,40
2016-08-26T05:30:25.099Z,40
2016-08-26T05:31:23.729Z,40
2016-08-26T05:32:25.078Z,40
2016-08-26T05:33:25.152Z,45
2016-08-26T05:34:22.906Z,45
2016-08-26T05:35:25.098Z,45
2016-08-26T05:36:25.029Z,45
2016-08-26T05:37:24.319Z,45
2016-08-26T05:38:25.032Z,45
2016-08-26T05:39:24.289Z,50
2016-08-26T05:40:23.612Z,50
2016-08-26T05:41:24.283Z,50
2016-08-26T05:42:24.269Z,50
2016-08-26T05:43:24.324Z,50
2016-08-26T05:44:24.970Z,50
2016-08-26T05:45:24.232Z,50
2016-08-26T05:46:24.233Z,50
2016-08-26T05:47:23.499Z,55
2016-08-26T05:48:24.899Z,55
2016-08-26T05:49:24.922Z,55
2016-08-26T05:50:24.986Z,55
2016-08-26T05:51:23.441Z,55
2016-08-26T05:52:23.510Z,55
2016-08-26T05:53:24.152Z,60
2016-08-26T05:54:24.870Z,60
2016-08-26T05:55:24.823Z,60
2016-08-26T05:56:24.829Z,60
2016-08-26T05:57:24.096Z,60
2016-08-26T05:58:24.122Z,60
2016-08-26T05:59:24.811Z,60
2016-08-26T06:00:24.070Z,65
2016-08-26T06:01:24.782Z,65
2016-08-26T06:02:23.350Z,65
2016-08-26T06:03:24.769Z,65
2016-08-26T06:04:24.753Z,70
2016-08-26T06:05:24.723Z,70
2016-08-26T06:06:23.281Z,70
2016-08-26T06:07:24.702Z,70
2016-08-26T06:08:23.978Z,70
2016-08-26T06:09:23.969Z,75
2016-08-26T06:10:23.231Z,75
2016-08-26T06:11:23.952Z,75
2016-08-26T06:12:24.701Z,75
2016-08-26T06:13:23.210Z,75
2016-08-26T06:14:23.911Z,75
2016-08-26T06:15:23.193Z,75
2016-08-26T06:16:23.923Z,75
2016-08-26T06:17:23.882Z,75
2016-08-26T06:18:23.161Z,75
2016-08-26T06:19:24.563Z,75
2016-08-26T06:20:23.863Z,75
2016-08-26T06:21:24.562Z,80
2016-08-26T06:22:23.837Z,75
2016-08-26T06:23:24.524Z,80
2016-08-26T06:24:23.802Z,80
2016-08-26T06:25:24.542Z,80
2016-08-26T06:26:24.532Z,85
2016-08-26T06:27:23.129Z,85
2016-08-26T06:28:23.783Z,85
2016-08-26T06:29:23.764Z,85
2016-08-26T06:30:23.749Z,85
2016-08-26T06:31:23.776Z,90
2016-08-26T06:32:24.454Z,90
2016-08-26T06:33:23.719Z,90
2016-08-26T06:34:24.421Z,90
2016-08-26T06:35:24.421Z,90
2016-08-26T06:36:23.692Z,85
2016-08-26T06:37:24.489Z,90
2016-08-26T06:38:23.668Z,95
2016-08-26T06:39:24.382Z,100
2016-08-26T06:40:23.653Z,100
2016-08-26T06:41:24.359Z,100
2016-08-26T06:42:24.364Z,105
2016-08-26T06:43:23.603Z,105
2016-08-26T06:44:24.321Z,105
2016-08-26T06:45:22.899Z,110
2016-08-26T06:46:23.612Z,115
2016-08-26T06:47:23.610Z,130
2016-08-26T06:48:23.562Z,445
2016-08-26T06:49:24.322Z,1045
2016-08-26T06:50:23.539Z,1290
2016-08-26T06:51:23.547Z,1310
2016-08-26T06:52:23.532Z,1170
2016-08-26T06:53:23.519Z,1150
2016-08-26T06:54:23.532Z,1005
2016-08-26T06:55:23.512Z,1150
2016-08-26T06:56:23.488Z,1245
2016-08-26T06:57:23.502Z,1185
2016-08-26T06:58:23.481Z,1275
2016-08-26T06:59:23.508Z,1375
2016-08-26T07:00:23.481Z,1225
2016-08-26T07:01:22.768Z,1190
2016-08-26T07:02:22.039Z,965
2016-08-26T07:03:24.170Z,1320
2016-08-26T07:04:24.174Z,1365
2016-08-26T07:05:23.471Z,880
2016-08-26T07:06:24.174Z,1040
2016-08-26T07:07:23.450Z,1180
2016-08-26T07:08:24.158Z,1255
2016-08-26T07:09:22.720Z,845
2016-08-26T07:10:23.438Z,1105
2016-08-26T07:11:22.698Z,1345
2016-08-26T07:12:24.141Z,1355
2016-08-26T07:13:24.146Z,1305
2016-08-26T07:14:24.138Z,1295
2016-08-26T07:15:24.140Z,525
2016-08-26T07:16:24.141Z,515
2016-08-26T07:17:24.159Z,225
2016-08-26T07:18:21.988Z,180
2016-08-26T07:19:23.402Z,175
2016-08-26T07:20:23.521Z,175
2016-08-26T07:21:23.391Z,165
2016-08-26T07:22:23.459Z,175
2016-08-26T07:23:22.666Z,175
2016-08-26T07:24:22.679Z,185
2016-08-26T07:25:24.127Z,180
2016-08-26T07:26:24.116Z,185
2016-08-26T07:27:24.106Z,185
2016-08-26T07:28:23.438Z,180
2016-08-26T07:29:23.377Z,185
2016-08-26T07:30:23.377Z,185
2016-08-26T07:31:23.379Z,190
2016-08-26T07:32:24.152Z,185
2016-08-26T07:33:23.446Z,190
2016-08-26T07:34:24.140Z,205
2016-08-26T07:35:22.663Z,215
2016-08-26T07:36:24.111Z,260
2016-08-26T07:37:24.079Z,640
2016-08-26T07:38:23.379Z,1070
2016-08-26T07:39:23.376Z,1320
2016-08-26T07:40:24.087Z,1350
2016-08-26T07:41:23.366Z,1290
2016-08-26T07:42:23.353Z,1285
2016-08-26T07:43:24.086Z,1355
2016-08-26T07:44:24.120Z,1485
2016-08-26T07:45:23.380Z,1420
2016-08-26T07:46:24.067Z,1320
2016-08-26T07:47:24.081Z,1395
2016-08-26T07:48:24.101Z,1350
2016-08-26T07:49:24.139Z,1240
2016-08-26T07:50:23.366Z,1300
2016-08-26T07:51:24.167Z,1170
2016-08-26T07:52:24.088Z,1175
2016-08-26T07:53:24.146Z,895
2016-08-26T07:54:22.679Z,1035
2016-08-26T07:55:22.663Z,1205
2016-08-26T07:56:24.097Z,1330
2016-08-26T07:57:24.106Z,1440
2016-08-26T07:58:23.389Z,1445
2016-08-26T07:59:22.688Z,1430
2016-08-26T08:00:23.388Z,1465
2016-08-26T08:01:22.660Z,1510
2016-08-26T08:02:22.746Z,1065
2016-08-26T08:03:24.115Z,1175
2016-08-26T08:04:24.097Z,1065
2016-08-26T08:05:23.395Z,1060
2016-08-26T08:06:23.407Z,1235
2016-08-26T08:07:24.117Z,820
2016-08-26T08:08:23.394Z,765
2016-08-26T08:09:23.420Z,655
2016-08-26T08:10:23.428Z,1285
2016-08-26T08:11:22.700Z,750
2016-08-26T08:12:22.699Z,1100
2016-08-26T08:13:23.425Z,1260
2016-08-26T08:14:24.179Z,1040
2016-08-26T08:15:23.427Z,1090
2016-08-26T08:16:23.429Z,965
2016-08-26T08:17:22.731Z,1390
2016-08-26T08:18:23.437Z,1425
2016-08-26T08:19:23.440Z,1360
2016-08-26T08:20:24.146Z,1450
2016-08-26T08:21:22.726Z,1540
2016-08-26T08:22:22.720Z,1455
2016-08-26T08:23:22.725Z,1300
2016-08-26T08:24:23.507Z,1180
2016-08-26T08:25:22.739Z,1120
2016-08-26T08:26:22.727Z,1085
2016-08-26T08:27:24.169Z,1170
2016-08-26T08:28:23.474Z,1220
2016-08-26T08:29:24.198Z,1135
2016-08-26T08:30:23.463Z,1105
2016-08-26T08:31:23.556Z,935
2016-08-26T08:32:24.187Z,1295
2016-08-26T08:33:22.803Z,1250
2016-08-26T08:34:24.196Z,1535
2016-08-26T08:35:23.550Z,1300
2016-08-26T08:36:24.218Z,1190
2016-08-26T08:37:24.239Z,1110
2016-08-26T08:38:24.230Z,1030
2016-08-26T08:39:23.511Z,1150
2016-08-26T08:40:23.521Z,1005
2016-08-26T08:41:23.530Z,1475
2016-08-26T08:42:24.247Z,1325
2016-08-26T08:43:24.267Z,1235
2016-08-26T08:44:23.543Z,1210
2016-08-26T08:45:23.526Z,1310
2016-08-26T08:46:22.122Z,1535
2016-08-26T08:47:24.250Z,1310
2016-08-26T08:48:23.557Z,1135
2016-08-26T08:49:24.508Z,1315
2016-08-26T08:50:24.290Z,960
2016-08-26T08:51:22.927Z,1320
2016-08-26T08:52:24.349Z,1295
2016-08-26T08:53:23.577Z,1300
2016-08-26T08:54:22.160Z,1390
2016-08-26T08:55:24.306Z,1290
2016-08-26T08:56:23.631Z,1205
2016-08-26T08:57:24.316Z,1315
2016-08-26T08:58:24.328Z,1440
2016-08-26T08:59:23.620Z,1530
2016-08-26T09:00:24.362Z,1550
2016-08-26T09:01:23.607Z,1475
2016-08-26T09:02:22.909Z,1380
2016-08-26T09:03:24.348Z,1385
2016-08-26T09:04:23.668Z,1300
2016-08-26T09:05:22.969Z,1490
2016-08-26T09:06:23.660Z,1470
2016-08-26T09:07:24.371Z,1485
2016-08-26T09:08:24.390Z,1290
2016-08-26T09:09:23.746Z,1330
2016-08-26T09:10:23.037Z,1275
2016-08-26T09:11:23.707Z,1325
2016-08-26T09:12:22.971Z,1455
2016-08-26T09:13:23.819Z,1545
2016-08-26T09:14:23.697Z,1275
2016-08-26T09:15:23.718Z,1030
2016-08-26T09:16:24.427Z,1430
2016-08-26T09:17:23.733Z,1500
2016-08-26T09:18:23.722Z,1440
2016-08-26T09:19:23.028Z,1535
2016-08-26T09:20:24.468Z,1300
2016-08-26T09:21:24.471Z,1290
2016-08-26T09:22:23.050Z,935
2016-08-26T09:23:24.481Z,700
2016-08-26T09:24:23.767Z,1025
2016-08-26T09:25:23.067Z,1330
2016-08-26T09:26:23.796Z,1370
2016-08-26T09:27:23.066Z,1265
2016-08-26T09:28:23.852Z,1365
2016-08-26T09:29:24.526Z,1145
2016-08-26T09:30:23.813Z,1445
2016-08-26T09:31:24.546Z,995
2016-08-26T09:32:24.617Z,640
2016-08-26T09:33:23.834Z,645
2016-08-26T09:34:23.838Z,1155
2016-08-26T09:35:23.846Z,1340
2016-08-26T09:36:24.567Z,1240
2016-08-26T09:37:24.588Z,1280
2016-08-26T09:38:23.855Z,1245
2016-08-26T09:39:23.870Z,1265
2016-08-26T09:40:24.623Z,1175
2016-08-26T09:41:24.598Z,1310
2016-08-26T09:42:23.175Z,1380
2016-08-26T09:43:23.904Z,1135
2016-08-26T09:44:24.636Z,815
2016-08-26T09:45:23.247Z,760
2016-08-26T09:46:23.900Z,1270
2016-08-26T09:47:23.987Z,1165
2016-08-26T09:48:23.916Z,1295
2016-08-26T09:49:23.926Z,1085
2016-08-26T09:50:23.928Z,850
2016-08-26T09:51:23.991Z,1040
2016-08-26T09:52:23.934Z,940
2016-08-26T09:53:22.562Z,1175
2016-08-26T09:54:24.674Z,1120
2016-08-26T09:55:23.954Z,945
2016-08-26T09:56:23.306Z,855
2016-08-26T09:57:23.258Z,375
2016-08-26T09:58:23.959Z,435
2016-08-26T09:59:23.970Z,815
2016-08-26T10:00:23.251Z,455
2016-08-26T10:01:24.686Z,1055
2016-08-26T10:02:23.967Z,920
2016-08-26T10:03:23.975Z,1085
2016-08-26T10:04:24.698Z,900
2016-08-26T10:05:23.981Z,875
2016-08-26T10:06:23.970Z,1120
2016-08-26T10:07:23.987Z,1100
2016-08-26T10:08:24.712Z,1065
2016-08-26T10:09:24.706Z,630
2016-08-26T10:10:24.035Z,790
2016-08-26T10:11:23.998Z,1010
2016-08-26T10:12:24.770Z,965
2016-08-26T10:13:23.996Z,605
2016-08-26T10:14:24.748Z,355
2016-08-26T10:15:24.018Z,305
2016-08-26T10:16:23.306Z,255
2016-08-26T10:17:24.009Z,270
2016-08-26T10:18:24.726Z,375
2016-08-26T10:19:24.007Z,375
2016-08-26T10:20:24.020Z,370
2016-08-26T10:21:24.009Z,365
2016-08-26T10:22:24.809Z,360
2016-08-26T10:23:24.736Z,350
2016-08-26T10:24:24.748Z,350
2016-08-26T10:25:24.061Z,340
2016-08-26T10:26:22.581Z,350
2016-08-26T10:27:24.033Z,355
2016-08-26T10:28:23.321Z,355
2016-08-26T10:29:23.371Z,350
2016-08-26T10:30:24.047Z,340
2016-08-26T10:31:23.387Z,350
2016-08-26T10:32:24.038Z,350
2016-08-26T10:33:24.091Z,345
2016-08-26T10:34:24.080Z,345
2016-08-26T10:35:24.070Z,350
2016-08-26T10:36:24.027Z,325
2016-08-26T10:37:24.748Z,300
2016-08-26T10:38:24.041Z,340
2016-08-26T10:39:24.740Z,295
2016-08-26T10:40:23.347Z,300
2016-08-26T10:41:24.042Z,290
2016-08-26T10:42:23.308Z,320
2016-08-26T10:43:22.620Z,340
2016-08-26T10:44:24.061Z,350
2016-08-26T10:45:24.054Z,350
2016-08-26T10:46:23.365Z,345
2016-08-26T10:47:24.781Z,325
2016-08-26T10:48:23.321Z,325
2016-08-26T10:49:24.769Z,350
2016-08-26T10:50:24.055Z,290
2016-08-26T10:51:24.771Z,300
2016-08-26T10:52:23.340Z,335
2016-08-26T10:53:24.046Z,345
2016-08-26T10:54:24.759Z,345
2016-08-26T10:55:24.051Z,340
2016-08-26T10:56:24.080Z,335
2016-08-26T10:57:24.788Z,335
2016-08-26T10:58:23.396Z,335
2016-08-26T10:59:24.069Z,330
2016-08-26T11:00:22.689Z,330
2016-08-26T11:01:24.798Z,335
2016-08-26T11:02:24.833Z,330
2016-08-26T11:03:24.057Z,330
2016-08-26T11:04:23.376Z,330
2016-08-26T11:05:24.797Z,330
2016-08-26T11:06:23.351Z,330
2016-08-26T11:07:24.051Z,330
2016-08-26T11:08:24.057Z,330
2016-08-26T11:09:24.067Z,325
2016-08-26T11:10:24.811Z,325
2016-08-26T11:11:24.781Z,330
2016-08-26T11:12:24.077Z,325
2016-08-26T11:13:23.350Z,325
2016-08-26T11:14:24.811Z,325
2016-08-26T11:15:24.121Z,325
2016-08-26T11:16:23.345Z,320
2016-08-26T11:17:23.386Z,325
2016-08-26T11:18:24.806Z,320
2016-08-26T11:19:24.098Z,325
2016-08-26T11:20:24.797Z,320
2016-08-26T11:21:24.138Z,320
2016-08-26T11:22:24.091Z,320
2016-08-26T11:23:24.161Z,320
2016-08-26T11:24:22.655Z,320
2016-08-26T11:25:24.071Z,320
2016-08-26T11:26:23.347Z,320
2016-08-26T11:27:22.658Z,320
2016-08-26T11:28:24.079Z,325
2016-08-26T11:29:24.076Z,320
2016-08-26T11:30:23.378Z,320
2016-08-26T11:31:24.799Z,320
2016-08-26T11:32:24.791Z,320
2016-08-26T11:33:24.077Z,320
2016-08-26T11:34:24.102Z,325
2016-08-26T11:35:24.142Z,320
2016-08-26T11:36:24.830Z,320
2016-08-26T11:37:24.804Z,315
2016-08-26T11:38:24.830Z,315
2016-08-26T11:39:24.805Z,320
2016-08-26T11:40:24.787Z,320
2016-08-26T11:41:24.099Z,320
2016-08-26T11:42:24.820Z,325
2016-08-26T11:43:24.828Z,325
2016-08-26T11:44:24.157Z,320
2016-08-26T11:45:24.806Z,320
2016-08-26T11:46:24.118Z,320
2016-08-26T11:47:24.805Z,320
2016-08-26T11:48:24.858Z,320
2016-08-26T11:49:24.099Z,320
2016-08-26T11:50:24.188Z,320
2016-08-26T11:51:22.694Z,320
2016-08-26T11:52:22.686Z,320
2016-08-26T11:53:24.839Z,315
2016-08-26T11:54:24.835Z,315
2016-08-26T11:55:24.107Z,315
2016-08-26T11:56:23.401Z,310
2016-08-26T11:57:24.107Z,315
2016-08-26T11:58:24.160Z,310
2016-08-26T11:59:24.194Z,310
2016-08-26T12:00:24.837Z,310
2016-08-26T12:01:24.828Z,315
2016-08-26T12:02:24.826Z,315
2016-08-26T12:03:24.125Z,315
2016-08-26T12:04:24.121Z,315
2016-08-26T12:05:24.161Z,315
2016-08-26T12:06:24.138Z,310
2016-08-26T12:07:24.307Z,315
2016-08-26T12:08:24.918Z,315
2016-08-26T12:09:23.404Z,315
2016-08-26T12:10:24.827Z,310
2016-08-26T12:11:24.230Z,310
2016-08-26T12:12:24.120Z,310
2016-08-26T12:13:23.417Z,305
2016-08-26T12:14:24.841Z,305
2016-08-26T12:15:24.841Z,305
2016-08-26T12:16:24.141Z,305
2016-08-26T12:17:24.149Z,300
2016-08-26T12:18:24.860Z,300
2016-08-26T12:19:24.146Z,295
2016-08-26T12:20:24.849Z,295
2016-08-26T12:21:24.160Z,295
2016-08-26T12:22:24.130Z,300
2016-08-26T12:23:23.445Z,300
2016-08-26T12:24:23.428Z,300
2016-08-26T12:25:22.708Z,305
2016-08-26T12:26:24.850Z,305
2016-08-26T12:27:24.154Z,305
2016-08-26T12:28:24.206Z,300
2016-08-26T12:29:24.146Z,300
2016-08-26T12:30:23.448Z,300
2016-08-26T12:31:24.853Z,295
2016-08-26T12:32:24.886Z,295
2016-08-26T12:33:24.870Z,295
2016-08-26T12:34:24.150Z,290
2016-08-26T12:35:24.887Z,285
2016-08-26T12:36:24.908Z,285
2016-08-26T12:37:23.430Z,290
2016-08-26T12:38:24.930Z,290
2016-08-26T12:39:24.885Z,295
2016-08-26T12:40:24.881Z,295
2016-08-26T12:41:24.875Z,290
2016-08-26T12:42:24.894Z,295
2016-08-26T12:43:24.158Z,290
2016-08-26T12:44:23.450Z,285
2016-08-26T12:45:24.161Z,285
2016-08-26T12:46:24.230Z,290
2016-08-26T12:47:22.720Z,290
2016-08-26T12:48:24.163Z,290
2016-08-26T12:49:24.158Z,280
2016-08-26T12:50:24.179Z,285
2016-08-26T12:51:23.460Z,280
2016-08-26T12:52:24.167Z,285
2016-08-26T12:53:23.484Z,285
2016-08-26T12:54:24.899Z,285
2016-08-26T12:55:24.199Z,285
2016-08-26T12:56:24.901Z,285
2016-08-26T12:57:24.250Z,285
2016-08-26T12:58:24.894Z,285
2016-08-26T12:59:24.927Z,285
2016-08-26T13:00:24.908Z,285
2016-08-26T13:01:24.911Z,280
2016-08-26T13:02:24.195Z,275
2016-08-26T13:03:24.928Z,275
2016-08-26T13:04:24.905Z,270
2016-08-26T13:05:24.190Z,270
2016-08-26T13:06:24.199Z,275
2016-08-26T13:07:24.251Z,280
2016-08-26T13:08:24.208Z,280
2016-08-26T13:09:23.478Z,280
2016-08-26T13:10:23.477Z,280
2016-08-26T13:11:24.915Z,275
2016-08-26T13:12:24.179Z,270
2016-08-26T13:13:24.184Z,270
2016-08-26T13:14:24.199Z,265
2016-08-26T13:15:24.237Z,265
2016-08-26T13:16:22.756Z,270
2016-08-26T13:17:24.205Z,260
2016-08-26T13:18:22.069Z,260
2016-08-26T13:19:24.218Z,265
2016-08-26T13:20:22.784Z,265
2016-08-26T13:21:22.042Z,265
2016-08-26T13:22:24.194Z,265
2016-08-26T13:23:23.485Z,265
2016-08-26T13:24:23.493Z,260
2016-08-26T13:25:24.908Z,260
2016-08-26T13:26:24.213Z,260
2016-08-26T13:27:22.767Z,255
2016-08-26T13:28:24.268Z,260
2016-08-26T13:29:24.211Z,260
2016-08-26T13:30:24.948Z,260
2016-08-26T13:31:24.948Z,260
2016-08-26T13:32:24.207Z,255
2016-08-26T13:33:24.932Z,255
2016-08-26T13:34:24.929Z,255
2016-08-26T13:35:23.551Z,250
2016-08-26T13:36:23.507Z,250
2016-08-26T13:37:24.939Z,255
2016-08-26T13:38:24.934Z,255
2016-08-26T13:39:23.552Z,260
2016-08-26T13:40:24.244Z,255
2016-08-26T13:41:24.216Z,260
2016-08-26T13:42:23.504Z,260
2016-08-26T13:43:24.228Z,260
2016-08-26T13:44:24.938Z,245
2016-08-26T13:45:24.960Z,250
2016-08-26T13:46:23.498Z,245
2016-08-26T13:47:24.969Z,240
2016-08-26T13:48:24.220Z,240
2016-08-26T13:49:24.256Z,240
2016-08-26T13:50:24.228Z,245
2016-08-26T13:51:24.986Z,245
2016-08-26T13:52:24.929Z,245
2016-08-26T13:53:24.941Z,240
2016-08-26T13:54:24.935Z,235
2016-08-26T13:55:24.227Z,235
2016-08-26T13:56:24.954Z,230
2016-08-26T13:57:23.520Z,235
2016-08-26T13:58:24.948Z,235
2016-08-26T13:59:24.964Z,235
2016-08-26T14:00:24.940Z,235
2016-08-26T14:01:24.221Z,230
2016-08-26T14:02:22.880Z,235
2016-08-26T14:03:23.505Z,215
2016-08-26T14:04:24.221Z,230